Time;durP1;ratioP1;P1;durP2;ratioP2;P2;SDS_P1;SDS_P2;PMS_P1;PMS_P2;Temp;Humidity;BMP_temperature;BMP_pressure;BME280_temperature;BME280_humidity;BME280_pressure;Samples;Min_cycle;Max_cycle;Signal;HPM_P1;HPM_P2
2022/12/22 03:25:52;;;;;;;2.45;1.25;;;7.10;99.60;;;;;;5134766;27;20199;-65
2022/12/22 03:28:21;;;;;;;2.08;1.05;;;7.20;99.70;;;;;;5134769;27;20274;-66
2022/12/22 03:30:56;;;;;;;2.17;1.00;;;7.30;99.70;;;;;;5135060;27;20257;-66
2022/12/22 03:33:25;;;;;;;2.72;1.30;;;7.40;99.60;;;;;;5135172;27;20226;-66
2022/12/22 03:35:52;;;;;;;2.28;1.10;;;7.50;99.80;;;;;;5134232;27;20224;-66
2022/12/22 03:38:19;;;;;;;1.90;1.10;;;7.60;99.50;;;;;;5134053;27;20640;-66
2022/12/22 03:40:46;;;;;;;1.95;0.98;;;7.70;99.50;;;;;;5135148;27;20216;-66
2022/12/22 03:49:08;;;;;;;2.42;1.05;;;7.70;99.70;;;;;;5134778;27;20195;-65
2022/12/22 03:51:32;;;;;;;4.53;1.10;;;7.60;99.90;;;;;;5133980;27;20228;-65
2022/12/22 03:53:59;;;;;;;3.15;1.52;;;7.70;99.90;;;;;;5133420;27;20192;-66
2022/12/22 03:56:26;;;;;;;2.38;1.27;;;7.80;99.90;;;;;;5134735;27;20230;-66
2022/12/22 03:58:54;;;;;;;3.47;1.20;;;7.80;99.90;;;;;;5133034;27;20245;-66
2022/12/22 04:01:21;;;;;;;2.53;1.40;;;7.80;99.90;;;;;;5134373;27;20218;-66
2022/12/22 04:03:51;;;;;;;4.15;1.73;;;7.90;99.70;;;;;;5134253;27;20555;-65
2022/12/22 04:06:21;;;;;;;5.05;2.35;;;7.90;99.80;;;;;;5134463;27;20536;-66
2022/12/22 04:08:48;;;;;;;5.20;1.83;;;7.90;99.50;;;;;;5133564;27;20314;-66
2022/12/22 04:14:00;;;;;;;2.90;1.63;;;7.80;99.30;;;;;;5134291;27;20191;-66
2022/12/22 04:16:28;;;;;;;3.25;1.92;;;7.70;99.40;;;;;;5134452;27;20330;-66
2022/12/22 04:18:56;;;;;;;3.95;1.42;;;7.70;99.50;;;;;;5134612;27;20193;-65
2022/12/22 04:21:23;;;;;;;2.15;1.65;;;7.80;99.40;;;;;;5134649;27;20256;-65
2022/12/22 04:23:51;;;;;;;2.58;1.45;;;7.80;99.30;;;;;;5131939;27;20186;-65
2022/12/22 04:26:18;;;;;;;2.70;1.48;;;7.80;99.20;;;;;;5134719;27;20254;-65
2022/12/22 04:28:45;;;;;;;2.80;1.70;;;7.80;99.10;;;;;;5134045;27;20692;-66
2022/12/22 04:31:12;;;;;;;2.10;1.23;;;7.80;99.00;;;;;;5134064;27;21016;-65
2022/12/22 04:33:39;;;;;;;2.35;1.50;;;7.70;99.10;;;;;;5133570;27;20228;-65
2022/12/22 04:36:09;;;;;;;3.08;1.83;;;7.70;99.10;;;;;;5134037;27;20318;-66
2022/12/22 04:38:36;;;;;;;4.20;1.63;;;7.80;99.10;;;;;;5133603;27;20243;-65
2022/12/22 04:41:04;;;;;;;2.50;1.50;;;7.80;98.90;;;;;;5134162;27;20255;-65
2022/12/22 04:43:31;;;;;;;2.40;1.10;;;7.80;99.00;;;;;;5133727;27;20620;-65
2022/12/22 04:45:58;;;;;;;2.20;1.58;;;7.80;98.90;;;;;;5133934;27;20225;-65
2022/12/22 04:48:27;;;;;;;4.88;1.42;;;7.80;98.90;;;;;;5133848;27;20275;-65
2022/12/22 04:50:56;;;;;;;3.08;1.92;;;7.80;98.80;;;;;;5133771;27;20720;-66
2022/12/22 04:53:26;;;;;;;3.53;1.50;;;7.80;98.80;;;;;;5133975;27;20199;-66
2022/12/22 04:55:56;;;;;;;2.58;1.30;;;7.80;98.70;;;;;;5134038;27;20194;-66
2022/12/22 04:58:23;;;;;;;2.90;1.25;;;7.70;98.80;;;;;;5132903;27;20183;-65
2022/12/22 05:00:50;;;;;;;2.35;1.25;;;7.70;98.90;;;;;;5133583;27;20280;-66
2022/12/22 05:03:17;;;;;;;3.60;1.75;;;7.70;98.80;;;;;;5133843;27;20200;-66
2022/12/22 05:05:44;;;;;;;3.47;2.28;;;7.70;98.70;;;;;;5133868;27;20250;-66
2022/12/22 05:08:11;;;;;;;2.28;1.50;;;7.70;98.70;;;;;;5133676;27;20207;-66
2022/12/22 05:10:39;;;;;;;2.35;1.50;;;7.60;98.80;;;;;;5133916;27;20189;-66
2022/12/22 05:13:06;;;;;;;2.67;1.70;;;7.60;98.80;;;;;;5133829;27;20579;-66
2022/12/22 05:15:35;;;;;;;2.50;1.40;;;7.50;98.80;;;;;;5133801;27;20238;-66
2022/12/22 05:18:03;;;;;;;3.00;1.98;;;7.40;98.70;;;;;;5134733;27;20186;-66
2022/12/22 05:20:30;;;;;;;3.95;2.28;;;7.30;99.00;;;;;;5137834;27;20304;-66
2022/12/22 05:22:58;;;;;;;3.05;2.30;;;7.30;99.30;;;;;;5137648;27;20695;-66
2022/12/22 05:25:25;;;;;;;3.53;2.15;;;7.30;99.30;;;;;;5138014;27;20285;-66
2022/12/22 05:27:53;;;;;;;4.72;2.25;;;7.20;99.50;;;;;;5137689;27;20282;-66
2022/12/22 05:30:21;;;;;;;5.40;2.92;;;7.20;99.50;;;;;;5137563;27;20230;-66
2022/12/22 05:32:48;;;;;;;3.63;2.38;;;7.20;99.30;;;;;;5137942;27;20295;-66
2022/12/22 05:35:16;;;;;;;7.90;5.35;;;7.10;99.30;;;;;;5137349;27;20225;-65
2022/12/22 05:37:43;;;;;;;6.85;2.72;;;7.00;99.50;;;;;;5138014;27;20527;-65
2022/12/22 05:40:12;;;;;;;6.57;4.15;;;7.00;99.50;;;;;;5137646;27;20267;-65
2022/12/22 05:42:39;;;;;;;5.43;3.63;;;7.00;99.30;;;;;;5136851;27;20213;-66
2022/12/22 05:45:13;;;;;;;7.50;2.65;;;7.00;99.20;;;;;;5136875;27;20183;-66
2022/12/22 05:47:41;;;;;;;3.67;2.80;;;7.00;99.10;;;;;;5137382;27;20191;-66
2022/12/22 05:50:10;;;;;;;2.95;1.90;;;7.00;98.80;;;;;;5137030;27;20180;-66
2022/12/22 05:52:37;;;;;;;4.18;1.65;;;7.00;98.60;;;;;;5137513;27;20225;-65
2022/12/22 05:55:05;;;;;;;3.20;1.83;;;7.00;98.50;;;;;;5136963;27;20685;-65
2022/12/22 05:57:32;;;;;;;3.13;2.35;;;7.00;98.40;;;;;;5137680;27;20224;-65
2022/12/22 05:59:59;;;;;;;3.00;2.30;;;7.10;98.30;;;;;;5137534;27;20634;-65
2022/12/22 06:02:27;;;;;;;2.95;1.80;;;7.20;98.10;;;;;;5137017;27;20222;-66
2022/12/22 06:04:54;;;;;;;2.63;1.58;;;7.20;98.30;;;;;;5137436;27;20231;-66
2022/12/22 06:07:21;;;;;;;3.00;1.30;;;7.40;98.20;;;;;;5137493;27;20228;-65
2022/12/22 06:09:48;;;;;;;2.90;1.42;;;7.50;97.70;;;;;;5136556;27;20224;-66
2022/12/22 06:12:15;;;;;;;3.70;1.33;;;7.60;97.40;;;;;;5137436;27;20221;-66
2022/12/22 06:14:42;;;;;;;2.13;1.00;;;7.70;97.10;;;;;;5136417;27;20185;-65
2022/12/22 06:17:09;;;;;;;5.78;1.30;;;7.80;96.80;;;;;;5137101;27;20291;-66
2022/12/22 06:19:38;;;;;;;5.38;2.03;;;7.90;96.50;;;;;;5133093;27;20221;-66
2022/12/22 06:22:05;;;;;;;4.63;2.67;;;8.00;96.30;;;;;;5135182;27;20274;-66
2022/12/22 06:24:32;;;;;;;2.90;2.08;;;8.00;96.10;;;;;;5135579;27;20234;-65
2022/12/22 06:26:59;;;;;;;2.95;1.40;;;8.10;95.90;;;;;;5133960;27;20181;-66
2022/12/22 06:29:26;;;;;;;3.38;1.88;;;8.10;95.60;;;;;;5134247;27;20277;-65
2022/12/22 06:31:53;;;;;;;2.90;1.75;;;8.10;95.40;;;;;;5135575;27;20221;-66
2022/12/22 06:34:20;;;;;;;3.03;1.55;;;8.10;95.30;;;;;;5135020;27;20263;-66
2022/12/22 06:36:49;;;;;;;7.38;1.58;;;8.10;95.20;;;;;;5134781;27;20226;-66
2022/12/22 06:39:16;;;;;;;2.83;1.50;;;8.10;95.20;;;;;;5135138;27;20227;-66
2022/12/22 06:44:28;;;;;;;7.53;2.38;;;8.10;94.90;;;;;;5131272;27;20538;-66
2022/12/22 06:46:55;;;;;;;5.18;2.70;;;8.10;94.70;;;;;;5133454;27;20240;-66
2022/12/22 06:49:23;;;;;;;4.55;2.10;;;8.20;94.60;;;;;;5134954;27;20232;-66
2022/12/22 06:51:51;;;;;;;5.00;2.28;;;8.20;94.50;;;;;;5133797;27;20255;-66
2022/12/22 06:54:18;;;;;;;4.95;3.90;;;8.10;94.40;;;;;;5131137;27;20207;-66
2022/12/22 06:56:45;;;;;;;2.85;1.42;;;8.10;94.30;;;;;;5136708;27;20186;-65
2022/12/22 06:59:13;;;;;;;3.03;1.40;;;8.00;94.10;;;;;;5133952;27;20197;-66
2022/12/22 07:01:41;;;;;;;2.40;1.00;;;8.00;94.00;;;;;;5133747;27;20689;-66
2022/12/22 07:04:08;;;;;;;3.35;1.75;;;8.00;94.10;;;;;;5134726;27;20248;-65
2022/12/22 07:06:35;;;;;;;4.07;1.98;;;8.00;94.30;;;;;;5133714;27;20189;-65
2022/12/22 07:09:04;;;;;;;3.13;1.85;;;8.00;93.90;;;;;;5132131;27;20277;-66
2022/12/22 07:11:31;;;;;;;5.05;3.92;;;7.90;94.00;;;;;;5134510;27;20232;-65
2022/12/22 07:13:57;;;;;;;3.03;2.22;;;7.80;94.10;;;;;;5132512;27;20300;-66
2022/12/22 07:16:24;;;;;;;3.30;2.47;;;7.80;94.30;;;;;;5133510;27;20647;-66
2022/12/22 07:18:51;;;;;;;3.25;2.35;;;7.70;94.30;;;;;;5132383;27;20188;-66
2022/12/22 07:21:18;;;;;;;4.80;2.35;;;7.70;94.40;;;;;;5134200;27;20358;-66
2022/12/22 07:23:45;;;;;;;3.95;1.70;;;7.60;94.50;;;;;;5133677;27;20296;-66
2022/12/22 07:26:15;;;;;;;4.18;2.25;;;7.60;94.70;;;;;;5133491;27;20369;-66
2022/12/22 07:28:42;;;;;;;3.22;1.90;;;7.60;94.70;;;;;;5131741;27;20709;-66
2022/12/22 07:31:10;;;;;;;5.50;2.03;;;7.80;95.00;;;;;;5129777;27;20184;-66
2022/12/22 07:33:37;;;;;;;3.20;2.03;;;8.00;94.40;;;;;;5133073;27;20275;-66
2022/12/22 07:36:07;;;;;;;3.38;2.05;;;8.20;94.00;;;;;;5133235;27;20280;-66
2022/12/22 07:38:36;;;;;;;7.90;3.83;;;8.40;93.90;;;;;;5128273;27;20239;-66
2022/12/22 07:41:03;;;;;;;5.90;3.20;;;8.50;92.30;;;;;;5132039;27;20224;-66
2022/12/22 07:43:31;;;;;;;4.18;2.85;;;8.50;92.00;;;;;;5132509;27;20211;-66
2022/12/22 07:45:57;;;;;;;5.53;2.40;;;8.60;91.80;;;;;;5131141;27;20190;-66
2022/12/22 07:51:08;;;;;;;2.70;1.33;;;8.70;90.80;;;;;;5127466;27;20185;-66
2022/12/22 07:53:35;;;;;;;2.55;1.20;;;8.50;90.80;;;;;;5133360;27;20279;-67
2022/12/22 07:56:04;;;;;;;3.65;1.70;;;8.40;91.00;;;;;;5134158;27;20743;-66
2022/12/22 07:58:32;;;;;;;4.68;1.67;;;8.30;91.00;;;;;;5133312;27;20673;-66
2022/12/22 08:01:00;;;;;;;2.80;1.60;;;8.20;91.50;;;;;;5134832;27;20257;-66
2022/12/22 08:03:27;;;;;;;2.70;1.70;;;8.30;91.80;;;;;;5134917;27;20193;-66
2022/12/22 08:05:54;;;;;;;3.05;1.65;;;8.50;91.30;;;;;;5134784;27;20194;-66
2022/12/22 08:08:22;;;;;;;2.53;1.30;;;8.60;91.20;;;;;;5134847;27;20198;-66
2022/12/22 08:10:49;;;;;;;4.18;2.22;;;8.80;91.00;;;;;;5134830;27;20190;-66
2022/12/22 08:13:16;;;;;;;6.03;2.50;;;8.90;91.00;;;;;;5134591;27;20661;-66
2022/12/22 08:15:45;;;;;;;6.85;3.83;;;8.90;90.00;;;;;;5134455;27;20667;-66
2022/12/22 08:18:12;;;;;;;3.90;1.90;;;9.00;90.00;;;;;;5134584;27;20293;-66
2022/12/22 08:20:39;;;;;;;7.90;4.30;;;9.10;88.00;;;;;;5134514;27;20226;-66
2022/12/22 08:23:06;;;;;;;6.68;3.25;;;9.20;88.60;;;;;;5134529;27;20286;-66
2022/12/22 08:25:34;;;;;;;3.38;2.00;;;9.40;87.40;;;;;;5134260;27;20664;-66
2022/12/22 08:28:01;;;;;;;5.05;2.40;;;9.50;85.80;;;;;;5134185;27;20241;-67
2022/12/22 08:30:29;;;;;;;5.07;2.20;;;9.80;84.60;;;;;;5134300;27;20223;-66
2022/12/22 08:32:57;;;;;;;3.83;1.85;;;9.80;84.60;;;;;;5134373;27;20195;-66
2022/12/22 08:35:24;;;;;;;5.53;3.33;;;9.90;83.30;;;;;;5134178;27;20547;-66
2022/12/22 08:37:52;;;;;;;8.38;3.75;;;10.00;82.30;;;;;;5134261;27;20230;-66
2022/12/22 08:40:23;;;;;;;5.40;2.30;;;10.00;82.40;;;;;;5134443;27;20278;-66
2022/12/22 08:42:58;;;;;;;2.45;1.38;;;10.00;80.50;;;;;;5134192;27;20222;-66
2022/12/22 08:45:25;;;;;;;3.92;1.95;;;10.10;82.00;;;;;;5134434;27;20239;-66
2022/12/22 08:47:52;;;;;;;3.25;1.38;;;10.40;83.60;;;;;;5134296;27;20242;-66
2022/12/22 08:50:20;;;;;;;3.65;1.67;;;10.50;79.90;;;;;;5134377;27;20586;-66
2022/12/22 08:52:47;;;;;;;4.78;1.17;;;10.60;79.70;;;;;;5133084;27;20230;-66
2022/12/22 08:55:14;;;;;;;3.40;1.73;;;10.50;79.90;;;;;;5133985;27;20234;-66
2022/12/22 08:57:43;;;;;;;3.30;1.83;;;10.30;78.90;;;;;;5133829;27;20234;-66
2022/12/22 09:00:12;;;;;;;2.15;1.25;;;10.10;80.30;;;;;;5133885;27;20206;-66
2022/12/22 09:02:39;;;;;;;6.13;2.00;;;9.90;82.00;;;;;;5133812;27;20581;-66
2022/12/22 09:05:06;;;;;;;5.35;2.53;;;9.90;82.80;;;;;;5133805;27;20281;-66
2022/12/22 09:07:35;;;;;;;10.05;4.43;;;9.90;82.10;;;;;;5133763;27;20226;-66
2022/12/22 09:10:02;;;;;;;6.32;3.75;;;9.80;83.80;;;;;;5133835;27;20250;-66
2022/12/22 09:12:29;;;;;;;5.13;2.95;;;9.70;83.50;;;;;;5133743;27;20195;-66
2022/12/22 09:14:58;;;;;;;6.72;3.30;;;9.60;84.20;;;;;;5133734;28;20191;-66
2022/12/22 09:17:25;;;;;;;3.70;2.38;;;9.50;84.90;;;;;;5133785;27;20247;-66
2022/12/22 09:19:53;;;;;;;5.38;2.75;;;9.40;84.70;;;;;;5133654;27;20234;-66
2022/12/22 09:22:20;;;;;;;3.00;1.80;;;9.50;85.40;;;;;;5133714;27;20362;-66
2022/12/22 09:24:49;;;;;;;4.18;1.92;;;9.50;86.40;;;;;;5131541;27;20271;-66
2022/12/22 09:27:16;;;;;;;4.20;2.30;;;9.70;87.20;;;;;;5131719;27;20628;-66
2022/12/22 09:29:42;;;;;;;3.88;1.95;;;9.90;87.50;;;;;;5131585;27;20242;-66
2022/12/22 09:32:09;;;;;;;2.67;1.83;;;9.90;87.10;;;;;;5131753;27;20278;-66
2022/12/22 09:34:36;;;;;;;3.88;2.25;;;10.00;86.00;;;;;;5131891;27;20282;-66
2022/12/22 09:37:05;;;;;;;3.65;1.70;;;10.00;86.30;;;;;;5131642;27;20275;-66
2022/12/22 09:39:32;;;;;;;3.60;3.20;;;10.20;86.90;;;;;;5131631;27;20195;-66
2022/12/22 09:42:01;;;;;;;16.88;6.88;;;10.20;85.80;;;;;;5132718;27;20215;-66
2022/12/22 09:44:33;;;;;;;9.25;4.63;;;10.20;85.50;;;;;;5133286;27;20194;-66
2022/12/22 09:47:02;;;;;;;9.68;5.00;;;10.20;83.70;;;;;;5133698;27;20223;-66
2022/12/22 09:49:29;;;;;;;12.55;9.00;;;10.60;85.00;;;;;;5133011;27;20227;-66
2022/12/22 09:51:58;;;;;;;14.70;7.37;;;11.30;83.50;;;;;;5132319;27;20223;-66
2022/12/22 09:54:26;;;;;;;4.90;3.00;;;12.20;84.00;;;;;;5133382;27;20869;-66
2022/12/22 09:56:53;;;;;;;3.60;2.40;;;13.20;77.20;;;;;;5133320;27;20533;-66
2022/12/22 09:59:22;;;;;;;3.43;2.30;;;14.20;73.80;;;;;;5133409;27;20513;-66
2022/12/22 10:02:05;;;;;;;2.60;1.50;;;15.50;78.30;;;;;;5133223;27;20564;-66
2022/12/22 10:04:45;;;;;;;4.70;1.00;;;16.30;67.30;;;;;;5136019;27;20437;-66
2022/12/22 10:07:22;;;;;;;7.50;1.40;;;16.10;61.30;;;;;;5137154;27;20926;-66
2022/12/22 10:09:49;;;;;;;2.93;0.73;;;15.70;59.10;;;;;;5137150;27;20480;-66
2022/12/22 10:12:19;;;;;;;2.47;1.00;;;15.20;58.10;;;;;;5136996;27;21007;-67
2022/12/22 10:14:49;;;;;;;2.70;0.80;;;14.90;58.70;;;;;;5137214;27;21093;-66
2022/12/22 10:17:19;;;;;;;2.00;0.90;;;14.60;59.30;;;;;;5136993;27;20440;-66
2022/12/22 10:19:48;;;;;;;2.63;0.70;;;14.30;58.30;;;;;;5137087;27;20492;-66
2022/12/22 10:22:28;;;;;;;3.57;1.27;;;14.00;59.60;;;;;;5136771;27;20537;-66
2022/12/22 10:24:56;;;;;;;3.80;1.50;;;13.70;59.10;;;;;;5137014;27;20464;-66
2022/12/22 10:27:26;;;;;;;2.30;0.90;;;13.50;59.60;;;;;;5137003;27;20473;-66
2022/12/22 10:29:54;;;;;;;2.87;1.40;;;13.40;59.10;;;;;;5136552;27;20529;-66
2022/12/22 10:32:22;;;;;;;3.47;1.60;;;13.40;59.90;;;;;;5136659;27;20476;-66
2022/12/22 10:35:03;;;;;;;7.17;2.17;;;13.50;58.30;;;;;;5136563;27;20822;-66
2022/12/22 10:37:36;;;;;;;4.47;1.10;;;13.70;59.70;;;;;;5136597;27;20465;-66
2022/12/22 10:40:23;;;;;;;4.77;1.20;;;14.60;59.40;;;;;;5136442;27;20433;-66
2022/12/22 10:42:51;;;;;;;4.50;0.87;;;;;;;;;;5136844;27;20931;-66
2022/12/22 10:45:22;;;;;;;3.40;0.90;;;;;;;;;;5136662;27;20460;-66
2022/12/22 10:47:55;;;;;;;4.87;1.17;;;17.50;53.30;;;;;;5136495;27;20469;-66
2022/12/22 10:50:23;;;;;;;2.83;0.80;;;17.60;49.00;;;;;;5136590;27;20468;-67
2022/12/22 10:52:54;;;;;;;2.07;0.70;;;17.00;47.90;;;;;;5136489;27;20437;-66
2022/12/22 10:55:25;;;;;;;5.60;1.00;;;16.40;48.70;;;;;;5136478;27;20765;-66
2022/12/22 10:58:06;;;;;;;5.60;3.10;;;15.80;48.80;;;;;;5136326;27;20429;-66
2022/12/22 11:00:34;;;;;;;2.90;0.90;;;15.20;49.90;;;;;;5136184;27;20484;-66
2022/12/22 11:03:05;;;;;;;2.00;0.80;;;14.80;51.30;;;;;;5135942;27;20512;-66
2022/12/22 11:05:33;;;;;;;4.07;0.90;;;14.50;52.10;;;;;;5136201;27;20800;-66
2022/12/22 11:08:19;;;;;;;3.37;0.90;;;14.20;52.60;;;;;;5132564;27;20535;-67
2022/12/22 11:10:52;;;;;;;2.20;0.90;;;13.90;53.70;;;;;;5135426;27;20462;-66
2022/12/22 11:13:46;;;;;;;6.13;1.13;;;13.90;55.30;;;;;;5135197;27;20441;-66
2022/12/22 11:16:21;;;;;;;2.33;0.93;;;13.90;55.00;;;;;;5125528;27;20465;-66
2022/12/22 11:19:03;;;;;;;6.60;1.47;;;13.80;56.40;;;;;;5134608;27;20476;-66
2022/12/22 11:21:40;;;;;;;3.00;1.20;;;13.80;56.20;;;;;;5135395;27;20455;-66
2022/12/22 11:24:20;;;;;;;5.07;1.50;;;14.10;56.70;;;;;;5135558;27;20502;-66
2022/12/22 11:27:05;;;;;;;4.30;1.47;;;14.60;56.60;;;;;;5135692;27;20436;-66
2022/12/22 11:29:59;;;;;;;2.20;0.83;;;15.60;57.20;;;;;;5135433;27;20472;-67
2022/12/22 11:32:40;;;;;;;3.10;1.70;;;16.80;54.40;;;;;;5112991;27;20482;-67
2022/12/22 11:35:13;;;;;;;2.20;1.30;;;17.10;50.70;;;;;;5135266;27;20494;-68
2022/12/22 11:37:48;;;;;;;3.67;1.10;;;17.20;49.70;;;;;;5135315;27;20935;-67
2022/12/22 11:40:28;;;;;;;4.50;1.00;;;17.60;49.30;;;;;;5135592;27;20437;-67
2022/12/22 11:43:11;;;;;;;4.13;1.10;;;17.40;48.70;;;;;;5135278;27;21036;-67
2022/12/22 11:45:52;;;;;;;4.47;0.90;;;17.00;48.00;;;;;;5135348;27;20465;-67
2022/12/22 11:48:54;;;;;;;5.63;1.33;;;16.60;49.60;;;;;;5135494;27;20780;-67
2022/12/22 11:51:31;;;;;;;4.00;1.10;;;16.20;49.70;;;;;;5135223;27;20460;-67
2022/12/22 11:54:14;;;;;;;5.57;1.10;;;15.90;50.10;;;;;;5134982;27;20429;-67
2022/12/22 11:56:44;;;;;;;4.13;1.40;;;15.50;50.80;;;;;;5135158;27;20533;-67
2022/12/22 11:59:28;;;;;;;5.27;1.17;;;15.30;50.50;;;;;;5135070;27;20501;-67
2022/12/22 12:02:31;;;;;;;5.83;1.07;;;15.00;51.10;;;;;;5135009;27;20437;-67
2022/12/22 12:05:34;;;;;;;4.40;1.40;;;15.00;52.70;;;;;;5134974;27;20467;-67
2022/12/22 12:08:09;;;;;;;4.27;0.93;;;15.00;52.50;;;;;;5124154;27;20441;-67
2022/12/22 12:10:44;;;;;;;2.80;1.10;;;14.90;52.70;;;;;;5134861;27;20469;-67
2022/12/22 12:13:20;;;;;;;3.43;1.30;;;15.00;52.40;;;;;;5134763;27;20460;-67
2022/12/22 12:15:51;;;;;;;3.30;1.63;;;14.80;51.80;;;;;;5135002;27;20464;-66
2022/12/22 12:18:44;;;;;;;3.40;1.00;;;14.80;53.30;;;;;;5134805;27;20465;-68
2022/12/22 12:21:25;;;;;;;3.20;1.50;;;14.70;52.80;;;;;;5135272;27;20425;-67
2022/12/22 12:24:37;;;;;;;5.50;0.90;;;14.70;53.30;;;;;;5134562;27;20536;-67
2022/12/22 12:27:11;;;;;;;2.90;1.10;;;14.70;52.60;;;;;;5070926;28;20494;-67
2022/12/22 12:29:45;;;;;;;6.87;1.67;;;14.70;53.00;;;;;;5123382;27;20445;-67
2022/12/22 12:32:19;;;;;;;3.67;1.40;;;14.60;52.90;;;;;;5134816;27;20972;-67
2022/12/22 12:34:50;;;;;;;6.13;1.27;;;14.30;53.00;;;;;;5134365;27;20503;-67
2022/12/22 12:37:22;;;;;;;2.60;0.93;;;14.20;53.70;;;;;;5134763;27;20469;-67
2022/12/22 12:39:59;;;;;;;5.70;1.77;;;14.00;54.40;;;;;;5134740;27;20472;-67
2022/12/22 12:42:31;;;;;;;4.10;1.50;;;13.80;54.40;;;;;;5134321;27;20967;-67
2022/12/22 12:44:59;;;;;;;3.20;1.37;;;13.60;54.70;;;;;;5134495;27;20532;-67
2022/12/22 12:47:28;;;;;;;8.30;1.50;;;13.50;55.30;;;;;;5134615;27;20437;-68
2022/12/22 12:49:58;;;;;;;4.20;0.90;;;13.50;55.90;;;;;;5134628;27;20839;-67
2022/12/22 12:53:12;;;;;;;2.93;1.00;;;13.40;56.10;;;;;;5134477;27;20433;-67
2022/12/22 12:56:12;;;;;;;6.97;3.17;;;13.40;56.20;;;;;;5129026;27;20520;-67
2022/12/22 12:58:56;;;;;;;4.47;1.63;;;13.30;56.30;;;;;;5134596;27;20452;-67
2022/12/22 13:01:58;;;;;;;3.70;1.40;;;13.20;56.60;;;;;;5134156;27;20954;-67
2022/12/22 13:05:14;;;;;;;4.67;1.30;;;13.20;57.00;;;;;;5134296;27;20453;-67
2022/12/22 13:08:08;;;;;;;5.70;1.30;;;13.10;56.90;;;;;;5134294;27;20490;-67
2022/12/22 13:10:37;;;;;;;2.97;1.20;;;13.10;57.50;;;;;;5134120;27;20472;-66
2022/12/22 13:13:05;;;;;;;5.73;1.50;;;13.00;57.40;;;;;;5133917;27;20441;-67
2022/12/22 13:15:34;;;;;;;4.07;1.10;;;13.00;57.40;;;;;;5134132;27;20939;-67
2022/12/22 13:18:03;;;;;;;3.40;1.23;;;13.00;57.40;;;;;;5134019;27;20433;-67
2022/12/22 13:20:32;;;;;;;3.40;1.03;;;12.90;57.70;;;;;;5133971;27;20473;-67
2022/12/22 13:23:01;;;;;;;4.20;1.20;;;13.00;57.90;;;;;;5134036;27;20498;-67
2022/12/22 13:25:42;;;;;;;3.90;1.30;;;13.10;58.30;;;;;;5133983;27;20429;-67
2022/12/22 13:28:16;;;;;;;4.43;1.27;;;13.40;58.50;;;;;;5133710;27;20426;-67
2022/12/22 13:30:48;;;;;;;5.30;1.93;;;13.70;57.20;;;;;;5133882;27;20421;-67
2022/12/22 13:33:18;;;;;;;7.97;2.07;;;13.90;56.10;;;;;;5133931;27;20930;-68
2022/12/22 13:35:47;;;;;;;4.83;1.50;;;14.10;55.60;;;;;;5133661;27;20497;-68
2022/12/22 13:38:30;;;;;;;4.80;1.20;;;14.10;54.70;;;;;;5134317;27;20859;-67
2022/12/22 13:40:58;;;;;;;5.20;1.80;;;14.20;54.70;;;;;;5136297;27;20484;-68
2022/12/22 13:43:28;;;;;;;6.20;1.20;;;14.30;54.20;;;;;;5137682;27;20568;-67
2022/12/22 13:45:57;;;;;;;7.13;1.30;;;14.20;54.00;;;;;;5137715;27;20448;-67
2022/12/22 13:48:29;;;;;;;4.60;1.33;;;14.00;53.70;;;;;;5137803;27;20473;-67
2022/12/22 13:51:02;;;;;;;6.33;1.27;;;13.90;54.30;;;;;;5137959;27;20436;-67
2022/12/22 13:53:35;;;;;;;6.47;1.40;;;13.90;54.90;;;;;;5137595;27;20433;-66
2022/12/22 13:56:05;;;;;;;4.53;1.10;;;13.70;54.80;;;;;;5137922;27;20433;-66
2022/12/22 13:58:39;;;;;;;4.70;1.57;;;13.50;55.00;;;;;;5137693;27;20491;-66
2022/12/22 14:01:16;;;;;;;5.57;1.70;;;13.40;55.50;;;;;;5137540;27;20439;-67
2022/12/22 14:03:48;;;;;;;5.97;1.70;;;13.30;55.70;;;;;;5137564;27;20533;-66
2022/12/22 14:06:27;;;;;;;3.93;1.67;;;13.20;55.90;;;;;;5137307;27;20471;-66
2022/12/22 14:08:54;;;;;;;5.63;2.27;;;13.10;56.20;;;;;;5137525;27;20984;-66
2022/12/22 14:11:21;;;;;;;9.17;2.80;;;13.10;56.50;;;;;;5137522;27;20464;-66
2022/12/22 14:13:50;;;;;;;7.23;1.87;;;13.00;56.70;;;;;;5137211;27;20435;-66
2022/12/22 14:16:17;;;;;;;4.63;1.50;;;12.90;57.00;;;;;;5137527;27;20508;-66
2022/12/22 14:18:43;;;;;;;5.27;1.63;;;12.80;57.80;;;;;;5137265;27;20498;-67
2022/12/22 14:21:11;;;;;;;6.70;1.73;;;12.70;57.80;;;;;;5137166;27;20482;-66
2022/12/22 14:23:41;;;;;;;8.50;2.20;;;12.70;57.70;;;;;;5137178;27;20540;-66
2022/12/22 14:26:12;;;;;;;5.70;1.37;;;12.70;57.70;;;;;;5137292;27;20914;-66
2022/12/22 14:28:49;;;;;;;6.07;1.47;;;12.60;57.90;;;;;;5136856;27;20520;-66
2022/12/22 14:31:21;;;;;;;4.30;1.10;;;12.60;58.20;;;;;;5136912;27;20439;-66
2022/12/22 14:33:53;;;;;;;3.60;1.40;;;12.40;58.60;;;;;;5137176;27;20838;-66
2022/12/22 14:36:23;;;;;;;4.00;1.27;;;12.40;58.90;;;;;;5136936;27;20465;-68
2022/12/22 14:38:52;;;;;;;6.37;1.47;;;12.30;59.40;;;;;;5136948;27;20441;-67
2022/12/22 14:44:25;;;;;;;13.00;1.83;;;12.20;59.80;;;;;;5136895;27;20512;-66
2022/12/22 14:47:14;;;;;;;4.87;0.93;;;12.20;60.60;;;;;;5136884;27;20478;-66
2022/12/22 14:49:50;;;;;;;5.20;1.13;;;12.10;60.70;;;;;;5135863;27;20447;-66
2022/12/22 14:52:34;;;;;;;2.83;1.50;;;12.10;61.00;;;;;;5136510;27;20465;-66
2022/12/22 14:55:03;;;;;;;4.60;1.90;;;12.10;61.40;;;;;;5136600;27;20486;-67
2022/12/22 14:57:35;;;;;;;3.33;1.33;;;12.20;61.60;;;;;;5136020;27;20468;-66
2022/12/22 15:00:06;;;;;;;9.40;2.23;;;12.10;61.50;;;;;;5136539;27;20473;-66
2022/12/22 15:02:37;;;;;;;5.70;1.73;;;12.10;61.50;;;;;;5136739;27;20457;-66
2022/12/22 15:05:14;;;;;;;3.83;1.67;;;12.10;61.60;;;;;;5136460;27;20729;-66
2022/12/22 15:07:46;;;;;;;3.40;1.10;;;12.00;62.00;;;;;;5136459;27;20440;-66
2022/12/22 15:10:14;;;;;;;7.13;1.30;;;11.90;62.00;;;;;;5136468;27;20437;-65
2022/12/22 15:12:41;;;;;;;5.20;1.60;;;11.90;62.30;;;;;;5136077;27;20469;-65
2022/12/22 15:15:16;;;;;;;4.53;1.63;;;11.90;62.80;;;;;;5136167;27;20842;-66
2022/12/22 15:17:46;;;;;;;5.60;3.40;;;11.80;63.10;;;;;;5136322;27;20486;-66
2022/12/22 15:20:17;;;;;;;5.67;2.23;;;11.70;63.40;;;;;;5136170;27;20483;-66
2022/12/22 15:22:44;;;;;;;5.87;2.20;;;11.60;63.70;;;;;;5136090;27;20449;-66
2022/12/22 15:25:16;;;;;;;3.80;1.50;;;11.60;64.30;;;;;;5136063;27;20441;-65
2022/12/22 15:27:43;;;;;;;3.20;1.10;;;11.60;64.60;;;;;;5135719;27;20494;-66
2022/12/22 15:30:17;;;;;;;4.07;1.40;;;11.60;64.80;;;;;;5136094;27;20486;-65
2022/12/22 15:32:46;;;;;;;6.50;1.77;;;11.60;65.10;;;;;;5136123;27;20859;-65
2022/12/22 15:35:18;;;;;;;6.80;1.60;;;11.50;65.40;;;;;;5135447;27;20495;-65
2022/12/22 15:37:44;;;;;;;5.90;2.10;;;11.50;65.70;;;;;;5135809;27;20437;-66
2022/12/22 15:40:20;;;;;;;4.10;1.40;;;11.40;66.00;;;;;;5135412;27;20528;-66
2022/12/22 15:42:47;;;;;;;7.97;2.07;;;11.40;66.30;;;;;;5135817;27;20437;-66
2022/12/22 15:45:17;;;;;;;7.53;2.07;;;11.40;66.70;;;;;;5135472;27;20553;-66
2022/12/22 15:47:50;;;;;;;3.47;1.20;;;11.30;67.20;;;;;;5135770;27;20437;-67
2022/12/22 15:50:20;;;;;;;6.40;1.60;;;11.30;67.50;;;;;;5135724;27;20812;-66
2022/12/22 15:52:50;;;;;;;4.57;1.43;;;11.30;67.70;;;;;;5135497;27;20441;-66
2022/12/22 15:55:18;;;;;;;4.03;1.63;;;11.30;67.80;;;;;;5135484;27;20488;-66
2022/12/22 15:57:46;;;;;;;6.00;1.57;;;11.30;67.90;;;;;;5135287;27;20474;-66
2022/12/22 16:00:14;;;;;;;2.60;1.00;;;11.30;68.00;;;;;;5135325;27;20864;-66
2022/12/22 16:02:41;;;;;;;3.83;1.40;;;11.30;68.10;;;;;;5134286;27;20490;-66
2022/12/22 16:05:11;;;;;;;2.97;1.57;;;11.30;68.10;;;;;;5135267;27;20567;-66
2022/12/22 16:07:38;;;;;;;3.60;1.40;;;11.30;68.10;;;;;;5135063;27;20903;-65
2022/12/22 16:10:08;;;;;;;4.73;1.30;;;11.30;68.10;;;;;;5135165;27;20438;-66
2022/12/22 16:12:36;;;;;;;6.03;1.60;;;11.30;68.00;;;;;;5135191;27;20466;-66
2022/12/22 16:15:04;;;;;;;4.00;1.60;;;11.30;67.90;;;;;;5134576;27;20521;-66
2022/12/22 16:17:31;;;;;;;7.90;1.87;;;11.30;68.00;;;;;;5134853;27;20440;-65
2022/12/22 16:19:59;;;;;;;7.00;2.30;;;11.30;68.10;;;;;;5134971;27;20441;-66
2022/12/22 16:22:32;;;;;;;7.50;1.33;;;11.30;68.00;;;;;;5134878;27;20437;-66
2022/12/22 16:25:02;;;;;;;3.57;1.30;;;11.30;67.90;;;;;;5134764;27;20503;-65
2022/12/22 16:27:29;;;;;;;3.50;1.37;;;11.30;67.60;;;;;;5134735;27;20970;-66
2022/12/22 16:29:58;;;;;;;4.50;1.73;;;11.30;67.20;;;;;;5134828;27;20515;-66
2022/12/22 16:32:27;;;;;;;6.00;2.17;;;11.30;67.00;;;;;;5134894;27;20818;-66
2022/12/22 16:34:57;;;;;;;4.23;1.47;;;11.30;67.10;;;;;;5134623;27;20469;-66
2022/12/22 16:37:24;;;;;;;3.87;1.20;;;11.30;67.40;;;;;;5134594;27;20429;-65
2022/12/22 16:39:52;;;;;;;8.07;2.27;;;11.30;67.20;;;;;;5134633;27;20434;-65
2022/12/22 16:42:20;;;;;;;6.90;2.70;;;11.30;67.00;;;;;;5134558;27;20440;-66
2022/12/22 16:44:48;;;;;;;7.03;1.60;;;11.30;67.10;;;;;;5133981;27;20520;-65
2022/12/22 16:47:18;;;;;;;5.97;1.83;;;11.30;67.10;;;;;;5134020;27;20433;-65
2022/12/22 16:49:49;;;;;;;5.28;1.98;;;11.30;67.00;;;;;;5134378;27;20790;-65
2022/12/22 16:52:19;;;;;;;2.83;1.43;;;11.30;67.20;;;;;;5134393;27;20608;-66